»·PEaware :: N1406T KDRO-KLXV

N1406T :: KDRO-KLXV

FLIGHT INFORMATION

Flight Status: Arrived
Operator: Privately registered:
United States
More flights under this callsign
Pilot: Doug H. (19585)
Aircraft: BEECH AIRCRAFT BARON
(BE58)
More flights by this aircraft type
Origin: KDRO Durango-La Plata Co
United States
Destination: KLXV Lake Co
United States
More flights between these airports :: More routes between these airports
Route: ZEANS V95 HBU V160 LOZUL
File this flight plan on PilotEdge
Remarks:
Altitude:
(Current/Filed)
17,000ft
Speed:
(Current/Filed)
190kts
Departed: 07-Feb-22 05:28 PM
Arrived: 07-Feb-22 06:29 PM
Distance/Time
Traveled:
142nm/1:01
Distance/Time
To Go:
Arrived

Flight Plot

Page will automatically refresh every two minutes.

Flight plan parsing failed; only flown route is shown


Map Options




Map Legend


Flown Route
Filed Route
Departure Airport
Arrival Airport
Navaid (VOR, NDB)
Fix

Horizontal Profiles

Position Reports

Time Latitude Longitude Heading Altitude Ground
Speed
07-Feb-22 17:11 37.159215 -107.749971 352 6688ft 0kts
07-Feb-22 17:12 37.159215 -107.749971 352 6688ft 0kts
07-Feb-22 17:13 37.159215 -107.749971 352 6688ft 0kts
07-Feb-22 17:14 37.159215 -107.749971 352 6688ft 0kts
07-Feb-22 17:15 37.159215 -107.749971 352 6688ft 0kts
07-Feb-22 17:16 37.159215 -107.749971 352 6688ft 0kts
07-Feb-22 17:17 37.159215 -107.749971 352 6688ft 0kts
07-Feb-22 17:18 37.159215 -107.749971 352 6688ft 0kts
07-Feb-22 17:19 37.159215 -107.749971 352 6688ft 0kts
07-Feb-22 17:20 37.159215 -107.749971 352 6688ft 0kts
07-Feb-22 17:21 37.159215 -107.749971 352 6688ft 0kts
07-Feb-22 17:22 37.159402 -107.749293 150 6688ft 10kts
07-Feb-22 17:23 37.161891 -107.745607 36 6688ft 19kts
07-Feb-22 17:24 37.162088 -107.745269 107 6688ft 0kts
07-Feb-22 17:25 37.162088 -107.745269 106 6688ft 0kts
07-Feb-22 17:26 37.162062 -107.745173 112 6688ft 7kts
07-Feb-22 17:27 37.145443 -107.759381 218 6886ft 129kts
07-Feb-22 17:28 37.125903 -107.787058 282 8129ft 134kts
07-Feb-22 17:29 37.155369 -107.780071 53 9233ft 147kts
07-Feb-22 17:30 37.181754 -107.749989 32 10748ft 107kts
07-Feb-22 17:31 37.206609 -107.732245 37 11489ft 121kts
07-Feb-22 17:32 37.241563 -107.710313 25 12047ft 140kts
07-Feb-22 17:33 37.277217 -107.689498 25 12752ft 140kts
07-Feb-22 17:34 37.310806 -107.669895 25 13613ft 123kts
07-Feb-22 17:35 37.339783 -107.652996 24 14424ft 102kts
07-Feb-22 17:36 37.366660 -107.637342 24 14901ft 106kts
07-Feb-22 17:37 37.394676 -107.621417 23 15315ft 114kts
07-Feb-22 17:38 37.425050 -107.604754 23 15727ft 123kts
07-Feb-22 17:39 37.456793 -107.587499 23 16226ft 121kts
07-Feb-22 17:40 37.487404 -107.570844 22 16720ft 116kts
07-Feb-22 17:41 37.517622 -107.554409 22 17015ft 121kts
07-Feb-22 17:42 37.555932 -107.533490 23 17017ft 147kts
07-Feb-22 17:43 37.598740 -107.510230 22 17010ft 163kts
07-Feb-22 17:44 37.640732 -107.487357 22 17018ft 164kts
07-Feb-22 17:45 37.683186 -107.464139 22 17027ft 164kts
07-Feb-22 17:46 37.725135 -107.441190 22 17034ft 164kts
07-Feb-22 17:47 37.767544 -107.417969 22 17038ft 164kts
07-Feb-22 17:48 37.809375 -107.395034 22 17039ft 164kts
07-Feb-22 17:49 37.851351 -107.371991 22 17042ft 164kts
07-Feb-22 17:50 37.893182 -107.349000 23 17047ft 164kts
07-Feb-22 17:51 37.935154 -107.325903 23 17054ft 164kts
07-Feb-22 17:52 37.977134 -107.302774 23 17056ft 164kts
07-Feb-22 17:53 38.019705 -107.279286 23 17059ft 166kts
07-Feb-22 17:54 38.062330 -107.255734 23 17061ft 168kts
07-Feb-22 17:55 38.105282 -107.232064 23 17064ft 169kts
07-Feb-22 17:56 38.148699 -107.208128 23 17065ft 170kts
07-Feb-22 17:57 38.192167 -107.184130 23 17065ft 171kts
07-Feb-22 17:58 38.235667 -107.160075 23 17065ft 171kts
07-Feb-22 17:59 38.279779 -107.135624 23 17065ft 171kts
07-Feb-22 18:00 38.323295 -107.111470 23 17064ft 171kts
07-Feb-22 18:01 38.368015 -107.086632 23 17065ft 171kts
07-Feb-22 18:02 38.411992 -107.062134 23 17064ft 171kts
07-Feb-22 18:03 38.452442 -107.031256 54 17071ft 172kts
07-Feb-22 18:04 38.475854 -106.976557 58 17063ft 175kts
07-Feb-22 18:05 38.497746 -106.920337 57 17063ft 179kts
07-Feb-22 18:06 38.519209 -106.864375 57 17063ft 184kts
07-Feb-22 18:07 38.542692 -106.803005 57 17082ft 190kts
07-Feb-22 18:08 38.566347 -106.740772 57 17083ft 195kts
07-Feb-22 18:09 38.589865 -106.678676 57 17083ft 193kts
07-Feb-22 18:10 38.613691 -106.615731 57 17074ft 193kts
07-Feb-22 18:11 38.637866 -106.551761 57 17075ft 196kts
07-Feb-22 18:12 38.661990 -106.487733 58 17048ft 200kts
07-Feb-22 18:13 38.686418 -106.422756 58 17014ft 202kts
07-Feb-22 18:14 38.711604 -106.355624 58 16975ft 203kts
07-Feb-22 18:15 38.736232 -106.289812 58 16942ft 202kts
07-Feb-22 18:16 38.762151 -106.220436 59 16538ft 201kts
07-Feb-22 18:17 38.786777 -106.154377 59 15917ft 201kts
07-Feb-22 18:18 38.827833 -106.118922 346 15316ft 175kts
07-Feb-22 18:19 38.874416 -106.139433 334 14708ft 176kts
07-Feb-22 18:20 38.921297 -106.163324 334 14094ft 181kts
07-Feb-22 18:21 38.967422 -106.195348 326 13469ft 184kts
07-Feb-22 18:22 39.013285 -106.230475 326 12850ft 188kts
07-Feb-22 18:23 39.059095 -106.266592 326 12237ft 191kts
07-Feb-22 18:24 39.106406 -106.293485 346 11843ft 179kts
07-Feb-22 18:25 39.150062 -106.301547 351 11324ft 118kts
07-Feb-22 18:26 39.182900 -106.308419 347 10463ft 108kts
07-Feb-22 18:27 39.212010 -106.314804 350 9903ft 90kts
07-Feb-22 18:28 39.224862 -106.316951 82 9902ft 11kts
07-Feb-22 18:29 39.225278 -106.316304 263 9902ft 0kts
07-Feb-22 18:30 39.225278 -106.316304 263 9902ft 0kts
07-Feb-22 18:31 39.225278 -106.316304 263 9902ft 0kts

Navigation Log

Ident Type
Flight plan parsing failed, navigation log unavailable